createdAt,value
2019-04-28T00:02:07.124Z,7.10
2019-04-28T00:04:35.411Z,7.80
2019-04-28T00:07:03.670Z,7.03
2019-04-28T00:09:31.890Z,6.73
2019-04-28T00:12:01.684Z,9.23
2019-04-28T00:14:31.721Z,7.97
2019-04-28T00:17:01.058Z,8.87
2019-04-28T00:19:31.003Z,7.03
2019-04-28T00:22:06.660Z,8.13
2019-04-28T00:24:36.481Z,7.90
2019-04-28T00:27:05.153Z,9.60
2019-04-28T00:29:40.775Z,8.97
2019-04-28T00:32:03.208Z,9.60
2019-04-28T00:34:31.376Z,8.87
2019-04-28T00:37:01.375Z,8.87
2019-04-28T00:39:31.063Z,9.73
2019-04-28T00:41:59.329Z,8.40
2019-04-28T00:44:27.567Z,8.70
2019-04-28T00:46:55.749Z,8.57
2019-04-28T00:49:42.091Z,9.00
2019-04-28T00:52:11.158Z,7.83
2019-04-28T00:54:39.427Z,9.00
2019-04-28T00:57:07.628Z,9.00
2019-04-28T00:59:35.844Z,8.27
2019-04-28T01:02:05.924Z,9.03
2019-04-28T01:04:34.103Z,9.70
2019-04-28T01:07:02.313Z,9.43
2019-04-28T01:09:31.601Z,9.30
2019-04-28T01:12:01.819Z,9.30
2019-04-28T01:14:30.996Z,10.40
2019-04-28T01:17:06.774Z,9.80
2019-04-28T01:19:42.423Z,11.63
2019-04-28T01:22:11.019Z,10.07
2019-04-28T01:24:39.822Z,9.93
2019-04-28T01:27:12.808Z,11.03
2019-04-28T01:29:43.761Z,14.53
2019-04-28T01:32:20.339Z,12.70
2019-04-28T01:34:49.861Z,10.87
2019-04-28T01:37:19.623Z,12.20
2019-04-28T01:39:49.634Z,12.80
2019-04-28T01:42:18.019Z,11.43
2019-04-28T01:44:46.200Z,13.60
2019-04-28T01:47:14.388Z,10.80
2019-04-28T01:49:42.573Z,13.20
2019-04-28T01:52:10.793Z,11.30
2019-04-28T01:54:40.295Z,14.50
2019-04-28T01:57:10.091Z,14.03
2019-04-28T01:59:39.779Z,15.60
2019-04-28T02:02:10.193Z,14.67
2019-04-28T02:04:40.427Z,14.63
2019-04-28T02:07:10.891Z,18.67
2019-04-28T02:09:39.544Z,15.53
2019-04-28T02:12:07.976Z,15.10
2019-04-28T02:14:36.275Z,14.53
2019-04-28T02:17:04.558Z,17.70
2019-04-28T02:19:32.987Z,15.63
2019-04-28T02:22:10.467Z,15.83
2019-04-28T02:24:40.334Z,15.90
2019-04-28T02:27:10.398Z,18.70
2019-04-28T02:29:41.420Z,14.40
2019-04-28T02:32:10.399Z,15.23
2019-04-28T02:34:41.134Z,14.53
2019-04-28T02:37:11.351Z,14.37
2019-04-28T02:39:40.905Z,17.00
2019-04-28T02:42:10.970Z,14.47
2019-04-28T02:44:40.426Z,14.73
2019-04-28T02:47:10.842Z,15.10
2019-04-28T02:49:43.110Z,15.53
2019-04-28T02:52:30.603Z,24.60
2019-04-28T02:54:59.557Z,16.97
2019-04-28T02:57:30.393Z,18.97
2019-04-28T03:00:00.436Z,16.63
2019-04-28T03:02:28.593Z,15.87
2019-04-28T03:04:56.773Z,18.40
2019-04-28T03:07:24.972Z,18.67
2019-04-28T03:09:53.257Z,22.37
2019-04-28T03:12:21.735Z,20.17
2019-04-28T03:14:50.515Z,19.07
2019-04-28T03:17:20.819Z,23.40
2019-04-28T03:19:51.603Z,22.47
2019-04-28T03:22:20.478Z,22.00
2019-04-28T03:24:51.139Z,18.43
2019-04-28T03:27:40.337Z,18.87
2019-04-28T03:30:15.465Z,18.10
2019-04-28T03:32:53.777Z,18.63
2019-04-28T03:35:17.001Z,20.43
2019-04-28T03:37:45.221Z,19.10
2019-04-28T03:40:13.400Z,23.53
2019-04-28T03:42:41.610Z,16.87
2019-04-28T03:45:11.433Z,16.17
2019-04-28T03:47:40.717Z,18.60
2019-04-28T03:50:10.467Z,18.97
2019-04-28T03:52:41.256Z,16.03
2019-04-28T03:55:11.100Z,18.50
2019-04-28T03:57:41.015Z,20.33
2019-04-28T04:00:11.020Z,17.90
2019-04-28T04:02:41.108Z,20.07
2019-04-28T04:05:11.148Z,17.97
2019-04-28T04:07:42.818Z,20.90
2019-04-28T04:10:20.664Z,19.47
2019-04-28T04:12:51.087Z,17.47
2019-04-28T04:15:24.006Z,19.00
2019-04-28T04:18:02.636Z,21.10
2019-04-28T04:20:31.143Z,19.87
2019-04-28T04:23:01.483Z,20.93
2019-04-28T04:25:31.390Z,18.30
2019-04-28T04:28:00.343Z,21.00
2019-04-28T04:30:31.189Z,19.20
2019-04-28T04:33:01.327Z,22.50
2019-04-28T04:35:31.513Z,28.03
2019-04-28T04:38:00.513Z,27.33
2019-04-28T04:40:31.352Z,24.60
2019-04-28T04:43:01.275Z,22.73
2019-04-28T04:45:30.596Z,24.73
2019-04-28T04:48:00.664Z,28.97
2019-04-28T04:50:31.070Z,23.37
2019-04-28T04:52:58.448Z,25.53
2019-04-28T04:55:26.649Z,24.50
2019-04-28T04:57:54.883Z,22.83
2019-04-28T05:00:24.699Z,19.63
2019-04-28T05:02:55.359Z,22.40
2019-04-28T05:05:31.136Z,22.50
2019-04-28T05:08:00.349Z,23.30
2019-04-28T05:10:30.308Z,23.50
2019-04-28T05:13:00.231Z,21.50
2019-04-28T05:15:30.326Z,23.23
2019-04-28T05:18:00.073Z,18.67
2019-04-28T05:20:30.140Z,17.00
2019-04-28T05:23:03.082Z,19.70
2019-04-28T05:25:41.311Z,19.10
2019-04-28T05:28:10.416Z,17.40
2019-04-28T05:30:39.660Z,19.10
2019-04-28T05:33:10.490Z,17.23
2019-04-28T05:35:39.723Z,17.23
2019-04-28T05:38:09.901Z,17.63
2019-04-28T05:40:39.808Z,19.50
2019-04-28T05:43:07.784Z,22.83
2019-04-28T05:45:35.971Z,23.20
2019-04-28T05:48:04.170Z,28.00
2019-04-28T05:50:40.159Z,26.10
2019-04-28T05:53:19.317Z,26.70
2019-04-28T05:55:50.327Z,32.93
2019-04-28T05:58:20.151Z,28.10
2019-04-28T06:00:50.008Z,29.97
2019-04-28T06:03:22.797Z,29.10
2019-04-28T06:05:50.973Z,25.90
2019-04-28T06:08:23.464Z,27.07
2019-04-28T06:10:51.693Z,28.67
2019-04-28T06:13:20.280Z,34.50
2019-04-28T06:15:49.671Z,32.03
2019-04-28T06:18:18.050Z,29.70
2019-04-28T06:20:46.269Z,27.87
2019-04-28T06:23:14.477Z,29.23
2019-04-28T06:25:42.693Z,35.33
2019-04-28T06:28:10.916Z,28.60
2019-04-28T06:30:39.166Z,29.33
2019-04-28T06:33:08.405Z,29.57
2019-04-28T06:35:36.831Z,27.23
2019-04-28T06:38:05.048Z,26.47
2019-04-28T06:40:33.223Z,30.53
2019-04-28T06:43:01.522Z,28.53
2019-04-28T06:45:29.708Z,27.90
2019-04-28T06:47:57.933Z,28.30
2019-04-28T06:50:26.144Z,29.70
2019-04-28T06:52:54.339Z,24.40
2019-04-28T06:55:22.561Z,23.80
2019-04-28T06:57:50.756Z,28.43
2019-04-28T07:00:18.974Z,27.80
2019-04-28T07:02:47.167Z,27.27
2019-04-28T07:05:15.409Z,24.17
2019-04-28T07:07:43.632Z,25.57
2019-04-28T07:10:11.850Z,26.13
2019-04-28T07:12:40.100Z,27.33
2019-04-28T07:15:08.380Z,24.90
2019-04-28T07:17:36.573Z,20.63
2019-04-28T07:20:19.740Z,22.13
2019-04-28T07:22:47.923Z,20.90
2019-04-28T07:25:16.152Z,18.97
2019-04-28T07:27:44.389Z,17.57
2019-04-28T07:30:13.773Z,20.30
2019-04-28T07:32:41.956Z,15.90
2019-04-28T07:35:10.234Z,19.03
2019-04-28T07:37:38.437Z,19.40
2019-04-28T07:40:06.624Z,18.40
2019-04-28T07:42:34.849Z,21.97
2019-04-28T07:45:03.746Z,18.83
2019-04-28T07:47:33.188Z,20.07
2019-04-28T07:50:01.433Z,17.67
2019-04-28T07:52:31.298Z,20.80
2019-04-28T07:54:59.513Z,23.23
2019-04-28T07:57:27.687Z,19.70
2019-04-28T07:59:55.917Z,21.40
2019-04-28T08:05:11.525Z,19.30
2019-04-28T08:07:39.729Z,17.47
2019-04-28T08:10:08.201Z,18.77
2019-04-28T08:12:36.419Z,15.37
2019-04-28T08:15:05.136Z,20.60
2019-04-28T08:17:33.684Z,17.53
2019-04-28T08:20:01.919Z,13.83
2019-04-28T08:22:30.192Z,15.17
2019-04-28T08:24:58.397Z,11.13
2019-04-28T08:27:26.575Z,12.00
2019-04-28T08:29:58.741Z,10.97
2019-04-28T08:32:39.245Z,10.73
2019-04-28T08:35:07.452Z,11.30
2019-04-28T08:37:35.741Z,11.20
2019-04-28T08:40:05.087Z,11.20
2019-04-28T08:42:33.279Z,11.30
2019-04-28T08:45:01.468Z,12.00
2019-04-28T08:47:29.656Z,11.60
2019-04-28T08:49:57.889Z,9.80
2019-04-28T08:52:26.060Z,11.60
2019-04-28T08:54:54.236Z,10.30
2019-04-28T08:57:22.444Z,8.00
2019-04-28T08:59:50.677Z,8.07
2019-04-28T09:02:19.916Z,8.43
2019-04-28T09:04:48.169Z,8.53
2019-04-28T09:07:16.343Z,10.23
2019-04-28T09:09:44.524Z,8.33
2019-04-28T09:12:12.721Z,9.27
2019-04-28T09:14:44.256Z,7.87
2019-04-28T09:17:12.521Z,8.13
2019-04-28T09:19:42.450Z,14.00
2019-04-28T09:22:10.619Z,9.90
2019-04-28T09:24:38.841Z,7.60
2019-04-28T09:27:07.046Z,8.93
2019-04-28T09:29:35.250Z,6.40
2019-04-28T09:32:03.461Z,10.90
2019-04-28T09:34:31.677Z,10.13
2019-04-28T09:36:59.852Z,9.40
2019-04-28T09:39:47.864Z,7.73
2019-04-28T09:42:32.625Z,10.10
2019-04-28T09:45:02.508Z,7.20
2019-04-28T09:47:30.706Z,7.60
2019-04-28T09:49:58.870Z,6.57
2019-04-28T09:52:27.035Z,6.60
2019-04-28T09:54:55.241Z,7.80
2019-04-28T09:57:23.412Z,4.67
2019-04-28T09:59:51.625Z,5.13
2019-04-28T10:02:19.886Z,6.00
2019-04-28T10:04:48.076Z,5.37
2019-04-28T10:07:16.252Z,5.33
2019-04-28T10:09:44.500Z,3.43
2019-04-28T10:12:12.757Z,7.10
2019-04-28T10:14:40.952Z,5.17
2019-04-28T10:17:09.128Z,5.10
2019-04-28T10:19:37.333Z,4.93
2019-04-28T10:22:05.533Z,4.33
2019-04-28T10:24:33.741Z,4.77
2019-04-28T10:27:01.967Z,4.20
2019-04-28T10:29:32.884Z,7.33
2019-04-28T10:32:00.126Z,8.33
2019-04-28T10:34:28.304Z,4.43
2019-04-28T10:36:56.504Z,6.57
2019-04-28T10:39:29.070Z,5.13
2019-04-28T10:41:57.259Z,6.27
2019-04-28T10:44:26.445Z,5.13
2019-04-28T10:46:54.630Z,7.20
2019-04-28T10:49:23.079Z,8.77
2019-04-28T10:51:59.243Z,7.10
2019-04-28T10:54:21.173Z,5.95
2019-04-28T10:56:49.340Z,5.13
2019-04-28T10:59:17.924Z,7.17
2019-04-28T11:01:46.302Z,5.13
2019-04-28T11:04:32.574Z,5.60
2019-04-28T11:07:00.798Z,3.70
2019-04-28T11:09:45.619Z,3.80
2019-04-28T11:12:21.141Z,5.17
2019-04-28T11:14:50.101Z,4.83
2019-04-28T11:17:18.738Z,5.03
2019-04-28T11:19:46.908Z,4.40
2019-04-28T11:22:15.393Z,6.00
2019-04-28T11:24:43.560Z,4.07
2019-04-28T11:27:13.245Z,3.70
2019-04-28T11:29:41.419Z,4.97
2019-04-28T11:32:09.595Z,4.80
2019-04-28T11:34:45.452Z,5.17
2019-04-28T11:37:14.101Z,3.60
2019-04-28T11:39:44.169Z,3.17
2019-04-28T11:42:12.370Z,5.60
2019-04-28T11:44:40.539Z,6.17
2019-04-28T11:47:10.347Z,5.33
2019-04-28T11:49:38.535Z,4.93
2019-04-28T11:52:06.782Z,4.13
2019-04-28T11:54:34.960Z,6.50
2019-04-28T11:57:03.132Z,4.00
2019-04-28T11:59:31.308Z,6.33
2019-04-28T12:01:59.480Z,4.07
2019-04-28T12:04:27.710Z,3.87
2019-04-28T12:06:55.944Z,3.73
2019-04-28T12:09:28.781Z,3.00
2019-04-28T12:12:01.699Z,2.87
2019-04-28T12:14:31.550Z,3.13
2019-04-28T12:17:04.039Z,2.97
2019-04-28T12:19:42.977Z,3.63
2019-04-28T12:22:11.178Z,2.73
2019-04-28T12:24:39.365Z,3.73
2019-04-28T12:27:07.578Z,3.03
2019-04-28T12:29:35.749Z,3.33
2019-04-28T12:32:04.005Z,7.47
2019-04-28T12:34:32.177Z,4.33
2019-04-28T12:37:00.390Z,7.20
2019-04-28T12:39:28.554Z,3.47
2019-04-28T12:41:56.779Z,3.27
2019-04-28T12:44:25.032Z,4.57
2019-04-28T12:46:53.246Z,3.10
2019-04-28T12:49:23.084Z,4.00
2019-04-28T12:51:51.289Z,4.60
2019-04-28T12:54:21.132Z,4.37
2019-04-28T12:56:49.340Z,3.93
2019-04-28T12:59:21.872Z,3.67
2019-04-28T13:01:54.178Z,4.00
2019-04-28T13:04:24.054Z,4.90
2019-04-28T13:07:03.109Z,8.80
2019-04-28T13:09:31.490Z,5.40
2019-04-28T13:11:59.690Z,4.00
2019-04-28T13:14:27.892Z,5.07
2019-04-28T13:16:56.088Z,9.60
2019-04-28T13:19:24.273Z,3.67
2019-04-28T13:21:52.440Z,4.60
2019-04-28T13:24:20.621Z,5.47
2019-04-28T13:26:48.807Z,6.03
2019-04-28T13:29:16.976Z,5.10
2019-04-28T13:31:45.158Z,4.37
2019-04-28T13:34:15.002Z,6.03
2019-04-28T13:36:43.209Z,3.50
2019-04-28T13:39:13.117Z,3.80
2019-04-28T13:41:41.401Z,4.87
2019-04-28T13:44:11.197Z,6.17
2019-04-28T13:46:39.409Z,4.03
2019-04-28T13:49:09.221Z,3.47
2019-04-28T13:51:37.392Z,4.80
2019-04-28T13:54:07.328Z,3.67
2019-04-28T13:56:35.491Z,4.50
2019-04-28T13:59:05.341Z,4.53
2019-04-28T14:01:35.181Z,5.63
2019-04-28T14:04:10.687Z,4.23
2019-04-28T14:06:40.529Z,5.07
2019-04-28T14:09:10.645Z,6.47
2019-04-28T14:11:38.849Z,5.13
2019-04-28T14:14:07.065Z,4.10
2019-04-28T14:16:35.303Z,4.80
2019-04-28T14:19:03.504Z,3.87
2019-04-28T14:21:31.767Z,5.33
2019-04-28T14:23:59.945Z,5.03
2019-04-28T14:26:28.128Z,4.33
2019-04-28T14:28:56.365Z,4.50
2019-04-28T14:31:24.616Z,3.67
2019-04-28T14:33:52.834Z,5.77
2019-04-28T14:36:21.041Z,3.57
2019-04-28T14:38:49.349Z,3.97
2019-04-28T14:41:17.621Z,3.70
2019-04-28T14:43:45.821Z,4.77
2019-04-28T14:46:14.029Z,2.90
2019-04-28T14:48:42.278Z,3.07
2019-04-28T14:51:10.489Z,3.03
2019-04-28T14:53:39.252Z,3.07
2019-04-28T14:56:07.693Z,5.00
2019-04-28T14:58:35.991Z,3.10
2019-04-28T15:01:05.884Z,4.00
2019-04-28T15:03:35.716Z,4.10
2019-04-28T15:06:08.362Z,3.80
2019-04-28T15:08:50.238Z,3.57
2019-04-28T15:11:20.097Z,8.90
2019-04-28T15:13:48.273Z,4.73
2019-04-28T15:16:16.575Z,4.80
2019-04-28T15:18:44.788Z,4.00
2019-04-28T15:21:13.020Z,5.50
2019-04-28T15:23:41.191Z,2.90
2019-04-28T15:26:09.410Z,2.83
2019-04-28T15:28:37.617Z,3.57
2019-04-28T15:31:05.829Z,3.63
2019-04-28T15:33:34.824Z,2.97
2019-04-28T15:36:03.003Z,2.60
2019-04-28T15:38:31.213Z,3.63
2019-04-28T15:40:59.384Z,3.43
2019-04-28T15:43:27.595Z,3.00
2019-04-28T15:45:55.832Z,6.23
2019-04-28T15:48:24.003Z,2.30
2019-04-28T15:50:52.229Z,2.60
2019-04-28T15:53:20.467Z,2.30
2019-04-28T15:55:59.233Z,2.33
2019-04-28T15:58:31.963Z,2.63
2019-04-28T16:01:00.346Z,2.37
2019-04-28T16:03:28.557Z,2.83
2019-04-28T16:05:59.768Z,4.27
2019-04-28T16:08:26.627Z,3.53
2019-04-28T16:10:54.821Z,3.10
2019-04-28T16:13:23.040Z,2.53
2019-04-28T16:15:51.225Z,3.30
2019-04-28T16:18:19.441Z,2.90
2019-04-28T16:20:47.636Z,3.30
2019-04-28T16:23:15.857Z,2.30
2019-04-28T16:25:44.131Z,2.17
2019-04-28T16:28:12.323Z,4.40
2019-04-28T16:30:40.516Z,3.43
2019-04-28T16:33:08.739Z,3.50
2019-04-28T16:35:36.931Z,2.50
2019-04-28T16:38:06.255Z,2.97
2019-04-28T16:40:36.169Z,3.80
2019-04-28T16:43:04.680Z,3.20
2019-04-28T16:45:32.852Z,2.80
2019-04-28T16:48:01.032Z,2.20
2019-04-28T16:50:29.297Z,3.40
2019-04-28T16:52:57.505Z,2.43
2019-04-28T16:55:34.048Z,2.23
2019-04-28T16:58:06.532Z,3.57
2019-04-28T17:00:36.402Z,2.47
2019-04-28T17:03:04.874Z,2.80
2019-04-28T17:05:33.081Z,3.87
2019-04-28T17:08:01.301Z,3.30
2019-04-28T17:10:29.482Z,2.47
2019-04-28T17:12:57.659Z,2.57
2019-04-28T17:15:25.876Z,2.50
2019-04-28T17:17:54.090Z,2.67
2019-04-28T17:20:22.282Z,2.63
2019-04-28T17:22:50.537Z,2.23
2019-04-28T17:25:18.696Z,3.07
2019-04-28T17:27:47.256Z,2.93
2019-04-28T17:30:16.788Z,4.30
2019-04-28T17:32:44.955Z,3.10
2019-04-28T17:35:15.293Z,2.27
2019-04-28T17:37:43.501Z,2.10
2019-04-28T17:40:13.463Z,2.97
2019-04-28T17:42:41.749Z,2.70
2019-04-28T17:45:10.017Z,3.27
2019-04-28T17:47:38.214Z,3.30
2019-04-28T17:50:07.335Z,4.30
2019-04-28T17:52:35.541Z,2.87
2019-04-28T17:55:04.687Z,3.70
2019-04-28T17:57:32.871Z,4.13
2019-04-28T18:00:07.236Z,2.30
2019-04-28T18:02:53.474Z,7.03
2019-04-28T18:05:40.065Z,3.70
2019-04-28T18:08:20.537Z,3.27
2019-04-28T18:10:39.352Z,3.00
2019-04-28T18:13:07.556Z,3.60
2019-04-28T18:15:40.093Z,3.20
2019-04-28T18:18:09.941Z,2.27
2019-04-28T18:20:39.757Z,3.53
2019-04-28T18:23:07.968Z,5.70
2019-04-28T18:25:36.139Z,3.30
2019-04-28T18:28:04.349Z,4.93
2019-04-28T18:30:34.156Z,3.60
2019-04-28T18:33:12.918Z,3.50
2019-04-28T18:35:42.721Z,3.00
2019-04-28T18:38:34.404Z,5.90
2019-04-28T18:40:53.052Z,4.20
2019-04-28T18:43:22.900Z,5.50
2019-04-28T18:45:51.073Z,4.97
2019-04-28T18:48:19.251Z,6.83
2019-04-28T18:50:47.440Z,6.17
2019-04-28T18:53:15.673Z,5.87
2019-04-28T18:55:44.534Z,6.03
2019-04-28T18:58:12.729Z,7.73
2019-04-28T19:00:42.548Z,6.90
2019-04-28T19:03:10.764Z,4.93
2019-04-28T19:05:40.651Z,3.90
2019-04-28T19:08:13.192Z,4.67
2019-04-28T19:10:52.174Z,5.53
2019-04-28T19:13:27.735Z,4.50
2019-04-28T19:16:13.917Z,5.53
2019-04-28T19:18:43.750Z,3.83
2019-04-28T19:21:11.950Z,5.77
2019-04-28T19:23:40.253Z,3.47
2019-04-28T19:26:08.439Z,5.20
2019-04-28T19:28:36.645Z,5.67
2019-04-28T19:31:04.858Z,5.20
2019-04-28T19:33:33.041Z,4.73
2019-04-28T19:36:01.249Z,4.33
2019-04-28T19:38:29.446Z,4.60
2019-04-28T19:40:57.631Z,4.73
2019-04-28T19:43:25.820Z,3.77
2019-04-28T19:45:55.640Z,4.73
2019-04-28T19:48:23.815Z,6.03
2019-04-28T19:50:51.998Z,3.93
2019-04-28T19:53:20.213Z,6.80
2019-04-28T19:55:55.745Z,5.07
2019-04-28T19:58:25.676Z,5.70
2019-04-28T20:00:55.555Z,5.57
2019-04-28T20:03:23.731Z,6.40
2019-04-28T20:05:51.915Z,6.23
2019-04-28T20:08:20.125Z,7.67
2019-04-28T20:10:48.328Z,6.50
2019-04-28T20:13:16.503Z,4.83
2019-04-28T20:15:44.757Z,6.13
2019-04-28T20:18:12.965Z,5.50
2019-04-28T20:20:41.196Z,7.30
2019-04-28T20:23:09.368Z,7.47
2019-04-28T20:25:37.537Z,7.10
2019-04-28T20:28:05.736Z,9.57
2019-04-28T20:30:33.912Z,5.80
2019-04-28T20:33:07.397Z,8.80
2019-04-28T20:35:33.657Z,6.10
2019-04-28T20:38:06.139Z,7.53
2019-04-28T20:40:38.662Z,8.43
2019-04-28T20:43:14.723Z,10.90
2019-04-28T20:45:42.925Z,7.63
2019-04-28T20:48:12.077Z,7.23
2019-04-28T20:50:40.274Z,5.80
2019-04-28T20:53:09.416Z,6.70
2019-04-28T20:55:38.520Z,6.93
2019-04-28T20:58:06.715Z,6.63
2019-04-28T21:00:34.962Z,5.80
2019-04-28T21:03:03.135Z,7.00
2019-04-28T21:05:32.227Z,5.00
2019-04-28T21:08:00.404Z,4.63
2019-04-28T21:10:37.645Z,5.80
2019-04-28T21:12:59.441Z,5.60
2019-04-28T21:15:28.380Z,7.90
2019-04-28T21:17:57.504Z,6.93
2019-04-28T21:20:25.684Z,5.50
2019-04-28T21:22:53.860Z,5.67
2019-04-28T21:25:22.073Z,5.73
2019-04-28T21:27:50.293Z,5.30
2019-04-28T21:30:18.865Z,5.60
2019-04-28T21:32:47.092Z,6.87
2019-04-28T21:35:15.268Z,7.07
2019-04-28T21:37:44.465Z,4.90
2019-04-28T21:40:14.794Z,6.47
2019-04-28T21:43:00.935Z,5.80
2019-04-28T21:45:46.128Z,7.30
2019-04-28T21:48:15.972Z,5.20
2019-04-28T21:50:44.242Z,5.57
2019-04-28T21:53:13.442Z,6.10
2019-04-28T21:55:41.624Z,6.37
2019-04-28T21:58:10.808Z,7.23
2019-04-28T22:00:51.654Z,5.57
2019-04-28T22:03:20.764Z,6.53
2019-04-28T22:05:49.892Z,6.27
2019-04-28T22:08:20.001Z,5.60
2019-04-28T22:10:48.216Z,6.50
2019-04-28T22:13:18.392Z,6.57
2019-04-28T22:15:46.572Z,6.27
2019-04-28T22:18:14.781Z,7.37
2019-04-28T22:20:42.983Z,6.73
2019-04-28T22:23:21.260Z,7.33
2019-04-28T22:25:51.449Z,7.90
2019-04-28T22:28:20.524Z,8.30
2019-04-28T22:30:50.684Z,10.20
2019-04-28T22:33:19.855Z,6.20
2019-04-28T22:35:48.049Z,7.27
2019-04-28T22:38:16.258Z,6.97
2019-04-28T22:40:45.416Z,7.70
2019-04-28T22:43:14.600Z,8.10
2019-04-28T22:45:42.784Z,6.93
2019-04-28T22:48:13.619Z,6.00
2019-04-28T22:50:51.892Z,6.70
2019-04-28T22:53:21.704Z,7.03
2019-04-28T22:56:00.652Z,5.97
2019-04-28T22:58:30.509Z,8.97
2019-04-28T23:01:17.261Z,8.13
2019-04-28T23:03:50.132Z,9.57
2019-04-28T23:06:20.271Z,8.73
2019-04-28T23:08:49.360Z,8.20
2019-04-28T23:11:17.560Z,8.00
2019-04-28T23:13:45.736Z,7.80
2019-04-28T23:16:13.928Z,9.03
2019-04-28T23:18:42.165Z,9.77
2019-04-28T23:21:12.507Z,9.20
2019-04-28T23:23:40.718Z,10.50
2019-04-28T23:26:08.908Z,9.60
2019-04-28T23:28:37.084Z,10.70
2019-04-28T23:31:05.268Z,8.83
2019-04-28T23:33:33.443Z,9.60
2019-04-28T23:36:01.630Z,9.90
2019-04-28T23:38:29.832Z,9.70
2019-04-28T23:41:14.737Z,8.40
2019-04-28T23:43:42.915Z,9.33
2019-04-28T23:46:11.122Z,9.20
2019-04-28T23:48:40.233Z,8.67
2019-04-28T23:51:12.916Z,9.00
2019-04-28T23:53:59.289Z,10.80
2019-04-28T23:56:27.525Z,10.30
2019-04-28T23:58:55.729Z,9.40
